Douglas Barbosa

Recruteur en chef - Fortaleza
28 Oct 2027
Jeudi
Processus

Personnalité

Adaptabilité (12) Ambition (7) Controverse (8) Loyauté (18) Pression (4) Professionnalisme (9) Sportivité (2) Tempérament (2)

Profil

Style d'entraînement Démocratique
Diplôme Continental B
Détermination 14
Gestion des joueurs 6
Motivation 11
Discipline 14
Satisfaction professionnelle
98%
Fatigue
0%
Rôle Recruteur en chef
Salaire 28.3K p/s
Contrat 14.03.2028

Performance

Comportement Bon
Efficacité de l'entraînement
45%
Développement des joueurs
60%
Prévention des blessures
45%
Mise en place tactique
30%

Événements récents

A évalué un joueur maintenant
A participé à une réunion de recrutement maintenant
A recommandé une cible de transfert maintenant
A recommandé une cible de transfert maintenant
A participé à une réunion de recrutement maintenant
A évalué un joueur 7j
A évalué un joueur 7j
A évalué un joueur 7j

Suivi en cours

219
Joueur Club Statut Capacité Confiance Observé Dernière observation Dernier vote
Nəriman Axundzadə Columbus Crew Actif 118 / 127 40% 2 27.10.2027 -
Rodrigo Castillo Fluminense Actif 120 / 122 40% 1 27.10.2027 -
Martín Ojeda Orlando City Actif 137 / 136 40% 3 25.10.2027 -
Diego García Malmo FF Actif 143 / 125 40% 3 25.10.2027 -
Wessam Abou Ali Columbus Crew Actif 142 / 127 40% 3 24.10.2027 -
Vegard Erlien Tromso Actif 126 / 133 40% 1 24.10.2027 -
Leonardo Campana New England Revolution Actif 129 / 122 40% 4 23.10.2027 -
Vitinho Internacional Actif 123 / 124 40% 1 23.10.2027 -
Rafael Navarro St. Louis CITY SC Actif 119 / 129 40% 3 22.10.2027 -
Sam Surridge Nashville SC Actif 140 / 139 40% 3 22.10.2027 -
Agustín Anello Philadelphia Union Actif 123 / 122 40% 2 21.10.2027 -
Alexis Cuello San Lorenzo Actif 127 / 118 40% 6 21.10.2027 -
Tadeo Allende Inter Miami CF Actif 132 / 130 40% 3 18.10.2027 -
Sead Hakšabanović Malmo FF Actif 112 / 112 40% 2 18.10.2027 -
Josh Sargent Toronto FC Actif 129 / 127 40% 3 16.10.2027 -
Max Fenger IFK Goteborg Actif 132 / 119 40% 1 16.10.2027 -
Kévin Denkey FC Cincinnati Actif 119 / 126 40% 1 14.10.2027 -
Paulos Abraham Hammarby Actif 109 / 115 40% 1 12.10.2027 -
Bénie Traoré New York City Actif 127 / 124 40% 4 11.10.2027 -
Cheikh Sabaly Vancouver Whitecaps Actif 124 / 116 40% 2 11.10.2027 -
Kerwin Vargas Seattle Sounders Actif 123 / 125 40% 1 08.10.2027 -
Yeferson Soteldo Bahia Actif 123 / 127 40% 1 08.10.2027 -
Emmanuel Sabbi Vancouver Whitecaps Actif 130 / 117 40% 3 05.10.2027 -
Brandon Vázquez Austin FC Actif 121 / 127 40% 1 05.10.2027 -
Armindo Sieb Los Angeles Football Club Actif 122 / 127 40% 1 04.10.2027 -
Afimico Pululu Rosario Central Actif 121 / 127 40% 1 04.10.2027 -
Ferreirinha Sport Recife Actif 128 / 127 40% 2 03.10.2027 -
Maurice Malone Minnesota United FC Actif 134 / 120 40% 2 02.10.2027 -
Morgan Guilavogui Real Salt Lake Actif 119 / 128 40% 1 02.10.2027 -
Pedro Raul Corinthians Actif 126 / 114 40% 2 01.10.2027 -
Lucas Villalba Botafogo Actif 129 / 133 40% 1 01.10.2027 -
Dejan Joveljić Seattle Sounders Actif 128 / 121 40% 3 30.09.2027 -
Duncan McGuire Houston Dynamo Actif 129 / 134 40% 2 30.09.2027 -
Claudio Spinelli Vasco da Gama Actif 132 / 127 40% 1 28.09.2027 -
Timo Werner San Jose Earthquakes Actif 140 / 132 40% 1 28.09.2027 -
Negueba Mirassol Actif 115 / 132 55% 4 26.09.2027 -
Maximiliano Gómez Nacional Actif 114 / 116 40% 1 26.09.2027 -
Luca Langoni Colorado Rapids Actif 137 / 138 40% 3 25.09.2027 -
Gabriel Taliari Juventude Actif 136 / 118 40% 1 21.09.2027 -
Antony Alonso Deportivo Riestra Actif 128 / 122 40% 1 11.09.2027 -
Jesus Ferreira Seattle Sounders Actif 145 / 130 40% 1 10.09.2027 -
Alejo Cruz Juventud Actif 113 / 121 40% 1 07.09.2027 -
Yuma Suzuki Urawa Reds Actif 117 / 123 40% 1 06.09.2027 -
John Kennedy Fluminense Actif 120 / 128 40% 1 05.09.2027 -
João Klauss LA Galaxy Actif 121 / 121 40% 1 04.09.2027 -
Luca Martínez Dupuy Godoy Cruz Actif 123 / 124 40% 1 01.09.2027 -
Billal Messaoudi JS Kabylie Actif 113 / 118 40% 1 30.08.2027 -
Mateo Cassierra Atlético Mineiro Actif 137 / 139 40% 2 28.08.2027 -
Alexander Aravena Portland Timbers Actif 132 / 132 40% 1 24.08.2027 -
Emmanuel Boateng Hapoel Tel Aviv Actif 133 / 135 40% 2 23.08.2027 -
Matheus Davó Maccabi Netanya Actif 132 / 123 40% 1 21.08.2027 -
Giuseppe Di Serio Spezia Actif 132 / 133 40% 1 20.08.2027 -
Nikola Vlašić Torino Actif 158 / 138 40% 1 20.08.2027 -
Che Adams Torino Actif 149 / 138 40% 1 19.08.2027 -
Giacomo Raspadori Atalanta Actif 139 / 159 40% 4 17.08.2027 -
Silvio Merkaj Vicenza Actif 123 / 122 40% 1 17.08.2027 -
Zakaria Aboukhlal Torino Actif 155 / 128 40% 1 16.08.2027 -
David Romero Parma Actif 134 / 138 40% 1 15.08.2027 -
Luciano Cosentino Wanderers Actif 113 / 125 40% 1 14.08.2027 -
John Okoye Ebuka Ittihad Actif 108 / 124 40% 1 10.08.2027 -
Ismaïla Sarr Crystal Palace Actif 149 / 156 40% 1 09.08.2027 -
Mohamed-Ali Cho Hull City Actif 153 / 151 40% 1 09.08.2027 -
Kyle Wootton Stockport County Actif 123 / 127 40% 2 07.08.2027 -
Bernat Guiu Virtus Entella Actif 130 / 117 40% 1 07.08.2027 -
Dávid Strelec Middlesbrough Actif 143 / 150 40% 2 06.08.2027 -
Carlton Morris Derby County Actif 122 / 119 40% 1 06.08.2027 -
Wilson Isidor Sunderland Actif 145 / 152 40% 2 05.08.2027 -
Nicolò Zaniolo Udinese Actif 162 / 145 40% 1 05.08.2027 -
Zian Flemming Ipswich Town Actif 130 / 147 40% 4 04.08.2027 -
Elijah Adebayo Luton Town Actif 113 / 131 40% 1 03.08.2027 -
Adam Idah Swansea City Actif 128 / 126 40% 1 02.08.2027 -
Moussa Dembélé CR Belouizdad Actif 142 / 125 40% 1 19.07.2027 -
Luis Vázquez Birmingham Actif 150 / 141 40% 1 19.07.2027 -
Tom Cannon Sheffield United Actif 137 / 127 40% 1 28.06.2027 -
Yuri Alberto Köln Actif 140 / 141 67% 1 01.06.2027 Approuver
Bright Arrey-Mbi Braga Actif 132 / 139 40% 3 17.04.2027 -
Javi Sánchez Arouca Actif 141 / 136 40% 1 17.04.2027 -
Víctor Gómez Braga Actif 156 / 132 40% 5 16.04.2027 -
Ryan Sessegnon Fulham Actif 131 / 134 40% 1 16.04.2027 -
Marios Vrousai Rio Ave Actif 113 / 122 40% 4 15.04.2027 -
Imrân Louza Watford Actif 127 / 138 40% 2 15.04.2027 -
Zé Carlos Gil Vicente Actif 140 / 114 40% 1 14.04.2027 -
Dinis Pinto Moreirense Actif 141 / 122 40% 1 14.04.2027 -
Darlin Yongwa Norwich City Actif 128 / 123 40% 1 12.04.2027 -
Josh Tymon Swansea City Actif 133 / 135 40% 2 11.04.2027 -
João Mendes Vitoria Guimaraes Actif 135 / 129 40% 1 11.04.2027 -
Harry Clarke Preston Actif 135 / 125 40% 2 08.04.2027 -
Saša Lukić Ipswich Town Actif 135 / 134 40% 2 08.04.2027 -
Callum Doyle Wrexham Actif 125 / 141 40% 1 02.04.2027 -
Joan Jordán Estrela da Amadora Actif 112 / 127 40% 2 31.03.2027 -
Lohann Doucet Vitoria Guimaraes Actif 118 / 122 40% 1 31.03.2027 -
Nicolás Fernández Mercau Shakhtar Actif 127 / 143 40% 2 30.03.2027 -
Bradley Locko Stade Brestois Actif 142 / 135 40% 1 30.03.2027 -
Romain Perraud LOSC Lille Actif 151 / 136 40% 1 29.03.2027 -
Joaquim Tigres Actif 120 / 123 40% 2 27.03.2027 -
Ross McCrorie Bristol City Actif 110 / 123 40% 1 27.03.2027 -
Gerardo Arteaga Monterrey Actif 136 / 138 40% 1 26.03.2027 -
Beni Mukendi Vitoria Guimaraes Actif 131 / 131 40% 1 26.03.2027 -
Mandla Erasmus SuperSport United Actif 117 / 113 40% 1 24.03.2027 -
Finn van Breemen Famalicao Actif 111 / 116 40% 1 22.03.2027 -
Lewis Ferguson Bologna Actif 128 / 142 40% 1 21.03.2027 -
Tiago Esgaio Arouca Actif 114 / 133 40% 2 20.03.2027 -
Luís Esteves Atlas Actif 137 / 119 40% 2 19.03.2027 -
Jesús Angulo Tigres Actif 135 / 133 40% 2 16.03.2027 -
Mateja Stjepanović Moreirense Actif 110 / 135 40% 1 16.03.2027 -
Kevin Vazquez Cruz Azul Actif 133 / 141 40% 2 15.03.2027 -
Francisco Moura Lusitânia Lourosa Actif 144 / 139 40% 1 15.03.2027 -
Rafa Soares Estrela da Amadora Actif 135 / 112 40% 1 14.03.2027 -
Pedro Santos Arouca Actif 122 / 131 40% 1 14.03.2027 -
Valery Académico de Viseu Actif 140 / 121 40% 2 11.03.2027 -
Aidan Morris Middlesbrough Actif 117 / 129 40% 1 11.03.2027 -
Adonis Frías Atlas Actif 119 / 121 40% 2 10.03.2027 -
Luke McNally Bristol City Actif 136 / 119 40% 1 10.03.2027 -
Renato Sanches AVS Actif 120 / 143 40% 2 06.03.2027 -
Sikou Niakaté Braga Actif 152 / 140 40% 1 06.03.2027 -
Juan María Alcedo Torreense Actif 134 / 120 40% 1 02.03.2027 -
Hugo Pérez Torreense Actif 111 / 109 40% 1 02.03.2027 -
Adalberto Carrasquilla Pumas UNAM Actif 116 / 119 40% 1 23.02.2027 -
Jack Currie Oxford United Actif 120 / 129 40% 1 21.02.2027 -
Hamza Choudhury Leicester City Actif 118 / 134 40% 1 20.02.2027 -
Xeka Estoril Praia Actif 128 / 113 40% 1 16.02.2027 -
David Sousa Casa Pia Actif 133 / 130 40% 1 16.02.2027 -
Ricard Sánchez Estoril Praia Actif 106 / 128 40% 3 15.02.2027 -
José Hurtado Bragantino Actif 120 / 134 40% 2 15.02.2027 -
Leonardo Realpe Famalicao Actif 135 / 124 40% 1 10.02.2027 -
Rodrigo Pinheiro Famalicao Actif 112 / 131 40% 1 10.02.2027 -
Dara O'Shea Ipswich Town Actif 148 / 146 40% 1 08.02.2027 -
Kenny Tete Fulham Actif 124 / 140 40% 1 06.02.2027 -
Max Bird Birmingham Actif 136 / 136 40% 1 05.02.2027 -
Christian Krasnodar Actif 139 / 119 40% 1 02.02.2027 -
Leandro Barreiro Benfica Actif 156 / 152 40% 1 28.12.2026 -
Jan Bednarek Porto Actif 164 / 135 40% 1 21.12.2026 -
Chuchu Ramírez Nacional Actif 151 / 127 40% 2 14.12.2026 Plus d'infos
Luiz Henrique West Ham United Négociation 142 / 143 68% 1 01.12.2026 Approuver
Isidro Pitta Bragantino Actif 122 / 130 40% 1 30.11.2026 -
Raúl Rangel Sporting CP Actif 148 / 132 40% 3 29.11.2026 -
Jamie Cumming Oxford United Actif 123 / 131 40% 1 28.11.2026 -
Mads Hermansen West Ham United Actif 123 / 148 40% 2 27.11.2026 -
Erick Reyes Toluca Actif 145 / 135 40% 2 26.11.2026 -
Cezary Miszta Rio Ave Actif 150 / 135 40% 3 26.11.2026 -
Gaëtan Poussin Red Star Actif 122 / 116 40% 1 25.11.2026 -
Lazar Carević Famalicao Actif 149 / 122 40% 4 24.11.2026 -
Dean Henderson Crystal Palace Actif 160 / 142 40% 4 23.11.2026 -
Radek Vítek Middlesbrough Actif 124 / 126 40% 4 22.11.2026 -
Ruben van Bommel Ferencvaros Actif 128 / 146 40% 1 22.11.2026 -
Kerem Aktürkoğlu Fenerbahce Actif 156 / 139 40% 1 21.11.2026 -
José Manuel López Palmeiras Actif 149 / 137 40% 1 21.11.2026 -
Carlos Miguel Palmeiras Actif 122 / 123 40% 6 19.11.2026 -
Gabriel Batista Botafogo Actif 128 / 135 40% 5 19.11.2026 -
Alexander Bah Benfica Actif 135 / 144 40% 1 19.11.2026 -
Tomás Araújo Benfica Actif 135 / 149 40% 1 19.11.2026 -
Romelu Castagne KV Oostende Actif 123 / 131 40% 1 16.11.2026 -
Nicolò Tresoldi Club Brugge Actif 145 / 141 40% 1 16.11.2026 -
Kostantis Tzolakis Hull City Actif 133 / 139 40% 2 11.11.2026 -
Nicolás Sumavil Platense Actif 107 / 121 40% 1 11.11.2026 -
Arijanet Murić Sassuolo Actif 132 / 132 40% 1 07.11.2026 -
Grégoire Coudert Burnley Actif 139 / 118 40% 2 06.11.2026 -
Bertrand Traoré Sunderland Actif 121 / 145 40% 1 05.11.2026 -
Manfred Ugalde Spartak Moscow Actif 130 / 140 40% 1 03.11.2026 -
Barış Alper Yılmaz Galatasaray Actif 164 / 132 40% 1 02.11.2026 Plus d'infos
Hugo Souza Corinthians Actif 129 / 134 40% 3 01.11.2026 -
Dayne St. Clair Inter Miami CF Actif 117 / 123 40% 1 01.11.2026 -
Jindřich Staněk KAA Gent Actif 126 / 148 40% 1 31.10.2026 -
Pau Víctor AVS Actif 151 / 149 40% 2 30.10.2026 -
Caio Alexandre Bahia Actif 135 / 140 40% 1 30.10.2026 -
Matheuzinho Corinthians Actif 144 / 127 40% 1 30.10.2026 -
Yoane Wissa Newcastle United Actif 132 / 137 40% 1 30.10.2026 -
Paulinho Palmeiras Actif 140 / 145 40% 2 29.10.2026 -
Gabriel Jesus Barcelona Actif 135 / 147 40% 1 29.10.2026 -
André Ferreira Moreirense Actif 125 / 129 40% 2 25.10.2026 -
Adriel Torreense Actif 109 / 126 40% 2 25.10.2026 -
Michael Cooper Sheffield United Actif 136 / 132 40% 1 23.10.2026 -
Oscar Gloukh Ajax Actif 134 / 122 40% 1 23.10.2026 -
Ola Brynhildsen Bodo/Glimt Actif 141 / 112 40% 1 20.10.2026 -
Lucas Arcanjo Vitória Actif 120 / 130 40% 3 19.10.2026 -
Roberto Ramírez Godoy Cruz Actif 129 / 124 40% 1 19.10.2026 -
Robin Roefs Sunderland Actif 137 / 157 40% 4 16.10.2026 -
Roman Celentano FC Cincinnati Actif 109 / 114 40% 3 15.10.2026 -
Bernardo Fontes Braga Actif 135 / 119 40% 3 14.10.2026 -
Roberto Fernández Braga Actif 135 / 141 40% 4 14.10.2026 -
André Moreira Oliveirense Actif 133 / 112 40% 1 12.10.2026 -
Rafik Guitane Estoril Praia Actif 125 / 136 40% 1 11.10.2026 -
Carlos Moreno Pachuca Actif 137 / 137 40% 5 07.10.2026 -
Emiliano González Almagro Actif 119 / 112 40% 2 06.10.2026 -
João Palhinha Benfica Actif 153 / 143 40% 1 06.10.2026 -
Yanis Begraoui Estoril Praia Actif 113 / 145 40% 4 04.10.2026 -
Andrés Gudiño Cruz Azul Actif 116 / 114 40% 1 03.10.2026 -
Víctor Cabezas Union Magdalena Actif 115 / 110 40% 1 01.10.2026 -
Mathias De Amorim Famalicao Actif 118 / 126 40% 1 01.10.2026 -
Jhon Arias Palmeiras Actif 133 / 144 40% 1 01.10.2026 -
Carlos Vinícius Grêmio Actif 133 / 130 40% 1 26.09.2026 -
Pablo Rosario Porto Actif 129 / 134 40% 1 26.09.2026 -
Dodi Lukébakio Benfica Actif 132 / 157 40% 2 24.09.2026 -
Vangelis Pavlidis Twente Actif 152 / 147 40% 1 21.09.2026 -
André Silva Tondela Actif 131 / 120 40% 1 21.09.2026 -
William Gomes Porto Actif 149 / 151 40% 1 21.09.2026 -
Caoimhin Kelleher Brentford Actif 159 / 152 40% 3 16.09.2026 -
Antonio Gomis Vizela Actif 96 / 123 40% 1 15.09.2026 -
Geovanni Banguera Deportivo Pasto Actif 108 / 113 40% 1 14.09.2026 -
Matt Freese New York City Actif 142 / 125 40% 1 09.09.2026 -
Jean America de Cali Actif 123 / 132 40% 1 01.09.2026 -
James Trafford Leeds United Actif 157 / 140 40% 2 27.08.2026 -
Ignacio de Arruabarrena Arouca Actif 106 / 128 40% 1 27.08.2026 -
Manuel Roffo Cerro Porteno Actif 133 / 127 40% 1 25.08.2026 -
Daniel Iversen Preston Actif 113 / 130 40% 1 24.08.2026 -
Felipe Parra Envigado Actif 124 / 127 40% 1 23.08.2026 -
Hany Mukhtar Spezia Actif 150 / 145 40% 1 19.08.2026 -
Myrto Uzuni Austin FC Actif 136 / 124 40% 1 19.08.2026 -
Fotis Ioannidis Rio Ave Actif 120 / 149 40% 1 16.08.2026 -
Sergi Altimira Sporting CP Actif 157 / 140 40% 1 15.08.2026 -
Stefanos Tzimas Brighton Actif 129 / 133 40% 1 14.08.2026 -
Patrick Sequeira Casa Pia Actif 104 / 118 40% 1 10.08.2026 -
Matvey Safonov Paris Saint-Germain Actif 155 / 140 40% 1 10.08.2026 -
Christian Walton Ipswich Town Actif 127 / 123 40% 1 09.08.2026 -
Ezequiel Centurión River Plate Actif 111 / 111 40% 1 06.08.2026 -
Joshua Zirkzee Manchester United Actif 137 / 135 40% 1 06.08.2026 -
Troy Parrott Betis Actif 141 / 125 40% 1 05.08.2026 -
Antonee Robinson Fulham Actif 128 / 138 40% 1 04.08.2026 -
Fredrik Aursnes Benfica Actif 139 / 138 40% 1 04.08.2026 -